Time;durP1;ratioP1;P1;durP2;ratioP2;P2;SDS_P1;SDS_P2;PMS_P1;PMS_P2;Temp;Humidity;BMP_temperature;BMP_pressure;BME280_temperature;BME280_humidity;BME280_pressure;Samples;Min_cycle;Max_cycle;Signal;HPM_P1;HPM_P2
2023/12/31 00:02:11;;;;;;;13.30;5.73;;;;;;;;;;5049800;28;20032;-70
2023/12/31 00:04:36;;;;;;;12.43;5.77;;;;;;;;;;5048834;28;20416;-69
2023/12/31 00:07:02;;;;;;;14.70;5.50;;;;;;;;;;5050098;28;20473;-68
2023/12/31 00:09:27;;;;;;;11.33;6.17;;;;;;;;;;5048664;28;20036;-69
2023/12/31 00:11:53;;;;;;;11.80;5.83;;;;;;;;;;5049444;28;20132;-68
2023/12/31 00:14:18;;;;;;;13.43;6.77;;;;;;;;;;5048652;28;20041;-67
2023/12/31 00:16:44;;;;;;;13.20;6.50;;;;;;;;;;5049700;28;20040;-68
2023/12/31 00:19:09;;;;;;;22.27;10.30;;;;;;;;;;5049773;28;20032;-68
2023/12/31 00:21:35;;;;;;;21.63;10.97;;;;;;;;;;5048335;28;20032;-69
2023/12/31 00:24:01;;;;;;;19.90;10.87;;;;;;;;;;5049442;28;20360;-70
2023/12/31 00:26:26;;;;;;;22.77;11.00;;;;;;;;;;5050063;28;20423;-68
2023/12/31 00:28:52;;;;;;;19.10;8.77;;;;;;;;;;5049299;28;20036;-69
2023/12/31 00:31:18;;;;;;;16.80;7.53;;;;;;;;;;5066385;28;20040;-69
2023/12/31 00:33:44;;;;;;;14.30;7.77;;;;;;;;;;5068823;28;20540;-69
2023/12/31 00:36:09;;;;;;;15.77;7.67;;;;;;;;;;5068968;28;20107;-69
2023/12/31 00:38:36;;;;;;;18.37;7.80;;;;;;;;;;5070201;28;20039;-68
2023/12/31 00:41:01;;;;;;;16.57;7.23;;;;;;;;;;5067938;28;20024;-69
2023/12/31 00:43:27;;;;;;;17.03;7.37;;;;;;;;;;5065244;28;20078;-69
2023/12/31 00:45:52;;;;;;;15.77;7.10;;;;;;;;;;5049419;28;20039;-68
2023/12/31 00:48:18;;;;;;;14.27;6.57;;;;;;;;;;5049328;28;20029;-67
2023/12/31 00:50:43;;;;;;;13.07;6.20;;;;;;;;;;5049298;28;20041;-68
2023/12/31 00:53:09;;;;;;;12.83;6.23;;;;;;;;;;5048889;28;20040;-68
2023/12/31 00:55:38;;;;;;;18.83;6.60;;;;;;;;;;5047858;28;20131;-70
2023/12/31 00:58:03;;;;;;;13.50;6.73;;;;;;;;;;5047505;28;20448;-68
2023/12/31 01:00:29;;;;;;;17.37;6.57;;;;;;;;;;5062934;28;20036;-68
2023/12/31 01:02:54;;;;;;;10.47;5.67;;;;;;;;;;5067695;28;20494;-68
2023/12/31 01:05:20;;;;;;;15.57;6.23;;;;;;;;;;5067495;28;20071;-68
2023/12/31 01:07:45;;;;;;;13.77;6.10;;;;;;;;;;5069004;28;20099;-69
2023/12/31 01:10:11;;;;;;;16.30;6.73;;;;;;;;;;5068950;28;20032;-68
2023/12/31 01:12:36;;;;;;;15.63;6.47;;;;;;;;;;5068473;28;20063;-67
2023/12/31 01:15:03;;;;;;;12.43;6.43;;;;;;;;;;5068435;28;20033;-67
2023/12/31 01:17:28;;;;;;;14.40;5.23;;;;;;;;;;5069094;28;20036;-67
2023/12/31 01:19:54;;;;;;;15.73;6.90;;;;;;;;;;5067508;28;20209;-70
2023/12/31 01:22:20;;;;;;;12.97;6.63;;;;;;;;;;5067147;28;20423;-69
2023/12/31 01:24:46;;;;;;;17.53;7.97;;;;;;;;;;5067527;28;20058;-67
2023/12/31 01:27:11;;;;;;;17.67;8.70;;;;;;;;;;5068591;28;20105;-68
2023/12/31 01:29:38;;;;;;;15.83;7.77;;;;;;;;;;5066380;28;20407;-68
2023/12/31 01:32:04;;;;;;;16.33;6.80;;;;;;;;;;5047710;28;20735;-69
2023/12/31 01:34:29;;;;;;;12.30;6.60;;;;;;;;;;5047644;28;20137;-69
2023/12/31 01:36:55;;;;;;;10.37;5.87;;;;;;;;;;5047450;28;20163;-69
2023/12/31 01:39:20;;;;;;;12.30;6.27;;;;;;;;;;5047414;28;20437;-69
2023/12/31 01:41:46;;;;;;;12.50;5.87;;;;;;;;;;5048962;28;20100;-68
2023/12/31 01:44:12;;;;;;;14.63;6.37;;;;;;;;;;5048591;28;20025;-67
2023/12/31 01:46:38;;;;;;;13.97;6.10;;;;;;;;;;5049888;28;20473;-69
2023/12/31 01:49:04;;;;;;;13.70;6.27;;;;;;;;;;5049407;28;20029;-69
2023/12/31 01:51:32;;;;;;;13.90;6.40;;;;;;;;;;5051281;28;20024;-69
2023/12/31 01:54:00;;;;;;;9.97;5.50;;;;;;;;;;5051713;28;20439;-69
2023/12/31 01:56:28;;;;;;;10.70;6.03;;;;;;;;;;5051387;28;20043;-72
2023/12/31 01:58:55;;;;;;;13.43;5.70;;;;;;;;;;5019357;28;20049;-68
2023/12/31 02:01:22;;;;;;;11.83;6.00;;;;;;;;;;5051347;28;20033;-68
2023/12/31 02:03:48;;;;;;;12.80;6.67;;;;;;;;;;5051764;28;20063;-69
2023/12/31 02:06:14;;;;;;;14.77;6.00;;;;;;;;;;5052086;28;20456;-69
2023/12/31 02:08:39;;;;;;;12.67;5.70;;;;;;;;;;5050847;28;20442;-70
2023/12/31 02:11:07;;;;;;;13.47;5.87;;;;;;;;;;5052135;28;20064;-70
2023/12/31 02:13:32;;;;;;;12.87;6.33;;;;;;;;;;5050606;28;20029;-68
2023/12/31 02:15:58;;;;;;;10.37;5.37;;;;;;;;;;5050798;28;20025;-68
2023/12/31 02:18:24;;;;;;;14.07;6.07;;;;;;;;;;5063355;28;20499;-68
2023/12/31 02:20:50;;;;;;;12.73;5.57;;;;;;;;;;5070967;28;20032;-70
2023/12/31 02:23:16;;;;;;;13.90;5.40;;;;;;;;;;5071802;28;20044;-67
2023/12/31 02:25:44;;;;;;;10.80;5.73;;;;;;;;;;5071026;28;20039;-69
2023/12/31 02:28:13;;;;;;;13.43;5.80;;;;;;;;;;5072228;28;20108;-67
2023/12/31 02:30:39;;;;;;;10.97;5.17;;;;;;;;;;5053701;28;20032;-69
2023/12/31 02:33:04;;;;;;;12.97;6.50;;;;;;;;;;5069728;28;20036;-69
2023/12/31 02:35:30;;;;;;;13.70;5.70;;;;;;;;;;5070722;28;20032;-69
2023/12/31 02:37:55;;;;;;;13.40;6.43;;;;;;;;;;5071750;28;20024;-71
2023/12/31 02:40:21;;;;;;;11.30;6.10;;;;;;;;;;5070167;28;20472;-69
2023/12/31 02:42:46;;;;;;;13.63;6.27;;;;;;;;;;5070092;28;20024;-69
2023/12/31 02:45:12;;;;;;;16.57;5.63;;;;;;;;;;5070927;28;20468;-69
2023/12/31 02:47:38;;;;;;;15.77;6.80;;;;;;;;;;5071095;28;20036;-69
2023/12/31 02:50:05;;;;;;;15.67;6.83;;;;;;;;;;5055598;28;20043;-69
2023/12/31 02:52:30;;;;;;;13.27;6.60;;;;;;;;;;5034521;28;20412;-69
2023/12/31 02:54:56;;;;;;;15.97;6.03;;;;;;;;;;5053090;28;20051;-69
2023/12/31 02:57:22;;;;;;;13.90;6.90;;;;;;;;;;5051111;28;20592;-70
2023/12/31 02:59:48;;;;;;;19.87;7.10;;;;;;;;;;5056256;28;20043;-68
2023/12/31 03:02:13;;;;;;;13.83;6.77;;;;;;;;;;5069414;28;20036;-68
2023/12/31 03:04:42;;;;;;;18.60;7.37;;;;;;;;;;5071338;28;20028;-70
2023/12/31 03:07:07;;;;;;;12.93;6.17;;;;;;;;;;5070783;28;20434;-69
2023/12/31 03:09:33;;;;;;;13.23;6.53;;;;;;;;;;5070246;28;20032;-68
2023/12/31 03:11:59;;;;;;;11.93;6.47;;;;;;;;;;5069585;28;20049;-68
2023/12/31 03:14:24;;;;;;;17.93;7.17;;;;;;;;;;5052828;28;20025;-67
2023/12/31 03:16:50;;;;;;;18.27;6.73;;;;;;;;;;5051224;28;20389;-69
2023/12/31 03:19:15;;;;;;;13.60;6.77;;;;;;;;;;5050808;28;20229;-68
2023/12/31 03:21:41;;;;;;;16.47;6.77;;;;;;;;;;5049626;28;20491;-69
2023/12/31 03:24:08;;;;;;;11.33;6.13;;;;;;;;;;5049487;28;20036;-69
2023/12/31 03:26:34;;;;;;;13.30;6.20;;;;;;;;;;5049417;28;20032;-69
2023/12/31 03:29:01;;;;;;;16.43;6.93;;;;;;;;;;5052315;28;20033;-67
2023/12/31 03:31:26;;;;;;;14.40;7.33;;;;;;;;;;5050635;28;20032;-68
2023/12/31 03:33:52;;;;;;;14.50;7.57;;;;;;;;;;5049371;28;20036;-68
2023/12/31 03:36:18;;;;;;;13.30;6.50;;;;;;;;;;5050704;28;20371;-68
2023/12/31 03:38:43;;;;;;;11.47;6.60;;;;;;;;;;5049157;28;20029;-69
2023/12/31 03:41:09;;;;;;;13.43;6.10;;;;;;;;;;5050559;28;20051;-69
2023/12/31 03:43:35;;;;;;;11.80;6.60;;;;;;;;;;5051807;28;20033;-69
2023/12/31 03:46:00;;;;;;;16.83;7.07;;;;;;;;;;5069424;28;20366;-67
2023/12/31 03:48:26;;;;;;;11.93;6.30;;;;;;;;;;5070280;28;20089;-69
2023/12/31 03:50:52;;;;;;;18.27;6.23;;;;;;;;;;5068892;28;20468;-68
2023/12/31 03:53:18;;;;;;;15.87;6.67;;;;;;;;;;5068478;28;20054;-67
2023/12/31 03:55:44;;;;;;;14.97;6.90;;;;;;;;;;5068894;28;20503;-68
2023/12/31 03:58:09;;;;;;;14.07;6.33;;;;;;;;;;5070077;28;20047;-68
2023/12/31 04:00:35;;;;;;;13.67;6.33;;;;;;;;;;5066983;28;20097;-69
2023/12/31 04:03:01;;;;;;;15.73;6.60;;;;;;;;;;5068684;28;20048;-67
2023/12/31 04:05:27;;;;;;;14.60;6.27;;;;;;;;;;5069938;28;20042;-69
2023/12/31 04:07:52;;;;;;;10.33;5.33;;;;;;;;;;5068756;28;20468;-68
2023/12/31 04:10:18;;;;;;;10.47;5.70;;;;;;;;;;5070554;28;20036;-68
2023/12/31 04:12:43;;;;;;;12.73;6.03;;;;;;;;;;5069498;28;20060;-70
2023/12/31 04:15:09;;;;;;;14.47;6.53;;;;;;;;;;5066228;28;20072;-69
2023/12/31 04:17:35;;;;;;;13.73;6.53;;;;;;;;;;5049709;28;20052;-68
2023/12/31 04:20:01;;;;;;;18.33;6.97;;;;;;;;;;5049631;28;20032;-68
2023/12/31 04:22:27;;;;;;;14.67;6.80;;;;;;;;;;5048142;28;20132;-69
2023/12/31 04:24:53;;;;;;;13.77;6.17;;;;;;;;;;5048458;28;20075;-68
2023/12/31 04:27:19;;;;;;;12.40;6.10;;;;;;;;;;5048057;28;20029;-68
2023/12/31 04:29:45;;;;;;;15.73;6.40;;;;;;;;;;5048330;28;20492;-68
2023/12/31 04:32:10;;;;;;;13.00;6.53;;;;;;;;;;5050056;28;20025;-68
2023/12/31 04:34:37;;;;;;;12.27;6.60;;;;;;;;;;5049390;28;20083;-69
2023/12/31 04:37:03;;;;;;;17.43;7.37;;;;;;;;;;5048339;28;20025;-69
2023/12/31 04:39:29;;;;;;;13.13;5.60;;;;;;;;;;5049510;28;20037;-69
2023/12/31 04:41:54;;;;;;;11.77;6.33;;;;;;;;;;5048495;28;20322;-70
2023/12/31 04:44:21;;;;;;;13.10;6.90;;;;;;;;;;5048025;28;20127;-67
2023/12/31 04:46:46;;;;;;;15.57;6.60;;;;;;;;;;5052765;28;20471;-69
2023/12/31 04:49:15;;;;;;;14.43;6.63;;;;;;;;;;5068021;28;20056;-69
2023/12/31 04:51:41;;;;;;;11.47;6.27;;;;;;;;;;5069889;28;20551;-69
2023/12/31 04:54:07;;;;;;;14.17;6.27;;;;;;;;;;5069853;28;20040;-67
2023/12/31 04:56:33;;;;;;;10.97;6.23;;;;;;;;;;5069229;28;20081;-68
2023/12/31 04:59:00;;;;;;;10.47;5.53;;;;;;;;;;5069244;28;20043;-67
2023/12/31 05:01:31;;;;;;;16.97;6.10;;;;;;;;;;5069121;28;20060;-68
2023/12/31 05:03:58;;;;;;;13.48;6.18;;;;;;;;;;5054988;28;20045;-68
2023/12/31 05:06:24;;;;;;;13.20;6.80;;;;;;;;;;5047560;28;20556;-69
2023/12/31 05:08:49;;;;;;;10.43;6.10;;;;;;;;;;5047636;28;20143;-68
2023/12/31 05:11:15;;;;;;;12.23;5.60;;;;;;;;;;5049040;28;20056;-68
2023/12/31 05:13:42;;;;;;;11.73;5.93;;;;;;;;;;5047329;28;20025;-68
2023/12/31 05:16:14;;;;;;;17.67;6.50;;;;;;;;;;5049176;28;20029;-68
2023/12/31 05:18:46;;;;;;;15.65;6.13;;;;;;;;;;5052711;28;20190;-68
2023/12/31 05:21:12;;;;;;;19.50;7.10;;;;;;;;;;5067443;28;20404;-67
2023/12/31 05:23:40;;;;;;;11.90;6.00;;;;;;;;;;5068546;28;20025;-68
2023/12/31 05:26:06;;;;;;;14.40;6.67;;;;;;;;;;5067464;28;20029;-67
2023/12/31 05:28:31;;;;;;;10.57;6.40;;;;;;;;;;5067386;28;20545;-68
2023/12/31 05:30:57;;;;;;;15.00;6.40;;;;;;;;;;5067805;28;20020;-69
2023/12/31 05:33:23;;;;;;;14.40;7.10;;;;;;;;;;5067754;28;20029;-69
2023/12/31 05:35:48;;;;;;;14.40;7.13;;;;;;;;;;5048613;28;20028;-68
2023/12/31 05:38:14;;;;;;;12.47;5.83;;;;;;;;;;5049259;28;20103;-69
2023/12/31 05:40:39;;;;;;;11.40;5.93;;;;;;;;;;5048864;28;20039;-70
2023/12/31 05:43:05;;;;;;;14.30;6.47;;;;;;;;;;5047834;28;20025;-69
2023/12/31 05:45:30;;;;;;;15.73;6.97;;;;;;;;;;5047845;28;20120;-69
2023/12/31 05:47:56;;;;;;;9.13;6.07;;;;;;;;;;5049067;28;20113;-70
2023/12/31 05:50:22;;;;;;;10.67;5.40;;;;;;;;;;5059752;28;20122;-69
2023/12/31 05:52:47;;;;;;;14.90;6.90;;;;;;;;;;5066455;28;20025;-69
2023/12/31 05:55:13;;;;;;;19.77;7.07;;;;;;;;;;5068708;28;20029;-68
2023/12/31 05:57:40;;;;;;;16.27;6.20;;;;;;;;;;5067193;28;20025;-69
2023/12/31 06:00:07;;;;;;;15.83;6.87;;;;;;;;;;5067524;28;20025;-69
2023/12/31 06:02:33;;;;;;;12.03;6.37;;;;;;;;;;5067406;28;20562;-67
2023/12/31 06:04:59;;;;;;;12.07;5.80;;;;;;;;;;5066534;28;20024;-69
2023/12/31 06:07:25;;;;;;;12.90;7.33;;;;;;;;;;5066352;28;20025;-67
2023/12/31 06:09:50;;;;;;;13.43;6.83;;;;;;;;;;5068542;28;20357;-68
2023/12/31 06:12:16;;;;;;;17.20;7.37;;;;;;;;;;5068329;28;20128;-69
2023/12/31 06:14:41;;;;;;;16.60;7.77;;;;;;;;;;5055209;28;20087;-69
2023/12/31 06:17:07;;;;;;;14.27;6.83;;;;;;;;;;5048670;28;20073;-70
2023/12/31 06:19:33;;;;;;;17.40;7.17;;;;;;;;;;5048073;28;20098;-69
2023/12/31 06:21:59;;;;;;;18.13;8.37;;;;;;;;;;5060254;28;20027;-68
2023/12/31 06:24:24;;;;;;;16.63;7.27;;;;;;;;;;5068348;28;20025;-69
2023/12/31 06:26:52;;;;;;;15.53;6.63;;;;;;;;;;5059396;28;20437;-68
2023/12/31 06:29:17;;;;;;;10.70;6.77;;;;;;;;;;5048772;28;20053;-69
2023/12/31 06:31:43;;;;;;;15.87;7.67;;;;;;;;;;5047064;28;20476;-69
2023/12/31 06:34:08;;;;;;;21.10;9.77;;;;;;;;;;5049067;28;20503;-70
2023/12/31 06:36:34;;;;;;;18.90;8.80;;;;;;;;;;5052081;28;20154;-68
2023/12/31 06:39:00;;;;;;;17.40;8.47;;;;;;;;;;5050750;28;20025;-67
2023/12/31 06:41:26;;;;;;;15.67;7.20;;;;;;;;;;5051513;28;20031;-68
2023/12/31 06:43:52;;;;;;;15.17;6.13;;;;;;;;;;5050981;28;20494;-67
2023/12/31 06:46:17;;;;;;;15.87;6.63;;;;;;;;;;5052379;28;20053;-71
2023/12/31 06:48:43;;;;;;;12.97;7.07;;;;;;;;;;5050808;28;20029;-68
2023/12/31 06:51:09;;;;;;;14.03;6.77;;;;;;;;;;5051999;28;20504;-70
2023/12/31 06:53:34;;;;;;;14.17;6.80;;;;;;;;;;5062159;28;20515;-68
2023/12/31 06:56:04;;;;;;;16.07;6.83;;;;;;;;;;5070215;28;20104;-68
2023/12/31 06:58:30;;;;;;;14.50;7.00;;;;;;;;;;5070202;28;20016;-69
2023/12/31 07:00:56;;;;;;;15.57;7.90;;;;;;;;;;5070151;28;20547;-68
2023/12/31 07:03:21;;;;;;;14.37;7.07;;;;;;;;;;5069892;28;20480;-68
2023/12/31 07:05:48;;;;;;;13.40;6.43;;;;;;;;;;5070043;28;20483;-68
2023/12/31 07:08:14;;;;;;;13.30;6.80;;;;;;;;;;5069601;28;20497;-69
2023/12/31 07:10:40;;;;;;;14.50;7.13;;;;;;;;;;5071198;28;20036;-68
2023/12/31 07:13:05;;;;;;;14.40;7.73;;;;;;;;;;5069957;28;20119;-69
2023/12/31 07:15:34;;;;;;;23.00;7.33;;;;;;;;;;5070010;28;20426;-69
2023/12/31 07:17:59;;;;;;;16.47;8.13;;;;;;;;;;5071574;28;20028;-69
2023/12/31 07:20:25;;;;;;;11.97;6.50;;;;;;;;;;5071396;28;20558;-68
2023/12/31 07:22:53;;;;;;;14.00;6.87;;;;;;;;;;5070068;28;20478;-69
2023/12/31 07:25:28;;;;;;;16.00;6.37;;;;;;;;;;5060327;28;20477;-67
2023/12/31 07:27:55;;;;;;;14.53;7.03;;;;;;;;;;5051185;28;20115;-70
2023/12/31 07:30:21;;;;;;;13.03;6.03;;;;;;;;;;5049698;28;20042;-68
2023/12/31 07:32:47;;;;;;;15.93;7.10;;;;;;;;;;5049657;28;20496;-69
2023/12/31 07:35:13;;;;;;;16.90;7.47;;;;;;;;;;5049702;28;20528;-68
2023/12/31 07:37:39;;;;;;;10.57;6.70;;;;;;;;;;5049630;28;20099;-69
2023/12/31 07:40:13;;;;;;;13.77;7.73;;;;;;;;;;5052331;28;20100;-69
2023/12/31 07:42:39;;;;;;;12.37;7.50;;;;;;;;;;5053583;28;20496;-69
2023/12/31 07:45:06;;;;;;;12.33;7.43;;;;;;;;;;5071143;28;20040;-69
2023/12/31 07:47:35;;;;;;;11.33;6.40;;;;;;;;;;5069325;28;20032;-70
2023/12/31 07:50:10;;;;;;;12.40;6.50;;;;;;;;;;5071186;28;20101;-70
2023/12/31 07:52:36;;;;;;;17.67;7.13;;;;;;;;;;5069221;28;20056;-70
2023/12/31 07:55:08;;;;;;;20.27;8.70;;;;;;;;;;5069262;28;20039;-69
2023/12/31 07:57:34;;;;;;;13.77;6.07;;;;;;;;;;5070206;28;20047;-69
2023/12/31 08:00:00;;;;;;;13.17;5.90;;;;;;;;;;5069476;28;20799;-68
2023/12/31 08:02:26;;;;;;;15.47;6.67;;;;;;;;;;5070707;28;20032;-69
2023/12/31 08:04:52;;;;;;;13.40;7.20;;;;;;;;;;5069492;28;20020;-69
2023/12/31 08:07:18;;;;;;;16.43;6.80;;;;;;;;;;5069392;28;20362;-69
2023/12/31 08:09:45;;;;;;;21.47;13.50;;;;;;;;;;5069370;28;20476;-68
2023/12/31 08:12:10;;;;;;;12.90;8.07;;;;;;;;;;5065916;28;20037;-72
2023/12/31 08:14:36;;;;;;;17.27;7.87;;;;;;;;;;5049251;28;20036;-69
2023/12/31 08:17:02;;;;;;;14.03;7.23;;;;;;;;;;5048972;28;20063;-70
2023/12/31 08:19:28;;;;;;;15.93;7.17;;;;;;;;;;5048806;28;20033;-68
2023/12/31 08:21:53;;;;;;;20.13;8.00;;;;;;;;;;5049768;28;20017;-67
2023/12/31 08:24:21;;;;;;;15.30;7.67;;;;;;;;;;5051985;28;20033;-68
2023/12/31 08:26:47;;;;;;;17.27;8.33;;;;;;;;;;5052157;28;20037;-68
2023/12/31 08:29:14;;;;;;;20.03;7.83;;;;;;;;;;5051097;28;20024;-70
2023/12/31 08:31:39;;;;;;;15.70;7.63;;;;;;;;;;5052187;28;20032;-68
2023/12/31 08:34:06;;;;;;;22.70;9.10;;;;;;;;;;5051680;28;20033;-69
2023/12/31 08:36:31;;;;;;;20.40;8.43;;;;;;;;;;5048936;28;20033;-69
2023/12/31 08:38:57;;;;;;;13.13;7.80;;;;;;;;;;5048778;28;20480;-69
2023/12/31 08:41:22;;;;;;;17.83;8.63;;;;;;;;;;5048546;28;20393;-67
2023/12/31 08:43:49;;;;;;;18.77;9.70;;;;;;;;;;5048670;28;20029;-69
2023/12/31 08:46:14;;;;;;;19.10;8.87;;;;;;;;;;5048566;28;20048;-71
2023/12/31 08:48:41;;;;;;;15.87;7.50;;;;;;;;;;5049476;28;20021;-69
2023/12/31 08:51:07;;;;;;;17.70;8.70;;;;;;;;;;5048211;28;20029;-68
2023/12/31 08:53:33;;;;;;;15.43;7.47;;;;;;;;;;5048256;28;20032;-69
2023/12/31 08:55:59;;;;;;;14.47;7.10;;;;;;;;;;5048110;28;20033;-68
2023/12/31 08:58:25;;;;;;;14.03;7.20;;;;;;;;;;5049381;28;20032;-70
2023/12/31 09:00:52;;;;;;;14.53;7.00;;;;;;;;;;5049766;28;20055;-70
2023/12/31 09:03:18;;;;;;;17.37;8.70;;;;;;;;;;5069598;28;20025;-68
2023/12/31 09:05:44;;;;;;;12.87;7.50;;;;;;;;;;5067955;28;20430;-69
2023/12/31 09:08:10;;;;;;;15.20;7.90;;;;;;;;;;5068213;28;20029;-69
2023/12/31 09:10:36;;;;;;;13.53;7.00;;;;;;;;;;5069296;28;20387;-69
2023/12/31 09:13:03;;;;;;;10.37;5.80;;;;;;;;;;5069388;28;20712;-68
2023/12/31 09:15:29;;;;;;;16.10;7.17;;;;;;;;;;5067262;28;20036;-71
2023/12/31 09:17:54;;;;;;;17.80;8.73;;;;;;;;;;5067800;28;20047;-69
2023/12/31 09:20:21;;;;;;;18.67;7.30;;;;;;;;;;5068017;28;20536;-69
2023/12/31 09:22:50;;;;;;;17.03;7.97;;;;;;;;;;5067519;28;20102;-70
2023/12/31 09:25:16;;;;;;;13.97;7.07;;;;;;;;;;5055240;28;20033;-68
2023/12/31 09:27:42;;;;;;;21.43;8.80;;;;;;;;;;5047511;28;20469;-68
2023/12/31 09:30:08;;;;;;;13.77;8.27;;;;;;;;;;5031347;28;20463;-68
2023/12/31 09:32:34;;;;;;;18.93;8.37;;;;;;;;;;5069560;28;20056;-69
2023/12/31 09:35:00;;;;;;;16.40;7.57;;;;;;;;;;5069062;28;20032;-68
2023/12/31 09:37:26;;;;;;;13.77;7.27;;;;;;;;;;5067403;28;20070;-68
2023/12/31 09:39:51;;;;;;;14.20;8.13;;;;;;;;;;5067574;28;20028;-69
2023/12/31 09:42:34;;;;;;;12.83;7.47;;;;;;;;;;5067889;28;20040;-68
2023/12/31 09:45:04;;;;;;;;;;;;;;;;;;5068123;28;20032;-70
2023/12/31 09:47:32;;;;;;;16.77;7.83;;;;;;;;;;5056126;28;20583;-70
2023/12/31 09:49:58;;;;;;;15.60;8.53;;;;;;;;;;5047654;28;20029;-69
2023/12/31 09:52:24;;;;;;;15.50;7.87;;;;;;;;;;5048829;28;20037;-68
2023/12/31 09:54:51;;;;;;;24.63;10.97;;;;;;;;;;5047511;28;20382;-68
2023/12/31 09:57:20;;;;;;;15.23;8.63;;;;;;;;;;5047544;28;20540;-68
2023/12/31 09:59:48;;;;;;;15.67;8.03;;;;;;;;;;5048836;28;20059;-68
2023/12/31 10:02:22;;;;;;;16.37;9.00;;;;;;;;;;5047791;28;20024;-69
2023/12/31 10:04:49;;;;;;;14.23;8.53;;;;;;;;;;5031333;28;20119;-69
2023/12/31 10:07:15;;;;;;;18.67;8.67;;;;;;;;;;5048828;28;20040;-70
2023/12/31 10:09:43;;;;;;;15.20;8.03;;;;;;;;;;5047807;28;20061;-69
2023/12/31 10:12:08;;;;;;;14.23;7.33;;;;;;;;;;5034116;28;20052;-70
2023/12/31 10:14:34;;;;;;;15.33;7.67;;;;;;;;;;5052601;28;20035;-71
2023/12/31 10:17:05;;;;;;;17.33;7.97;;;;;;;;;;5051136;28;20048;-68
2023/12/31 10:19:31;;;;;;;18.58;8.18;;;;;;;;;;5070158;28;20040;-69
2023/12/31 10:21:57;;;;;;;13.33;7.63;;;;;;;;;;5070634;28;20039;-67
2023/12/31 10:24:34;;;;;;;14.27;7.67;;;;;;;;;;5071301;28;20098;-67
2023/12/31 10:27:08;;;;;;;15.83;7.57;;;;;;;;;;5072594;28;20036;-69
2023/12/31 10:29:34;;;;;;;16.63;8.43;;;;;;;;;;5071138;28;20463;-69
2023/12/31 10:32:06;;;;;;;12.17;7.47;;;;;;;;;;5071215;28;20024;-68
2023/12/31 10:34:32;;;;;;;23.07;7.30;;;;;;;;;;5044562;28;20041;-68
2023/12/31 10:37:06;;;;;;;18.67;8.43;;;;;;;;;;5050479;28;20028;-69
2023/12/31 10:39:36;;;;;;;17.27;8.53;;;;;;;;;;5051597;28;20542;-69
2023/12/31 10:42:06;;;;;;;17.13;8.17;;;;;;;;;;5051080;28;20523;-72
2023/12/31 10:44:33;;;;;;;17.43;7.67;;;;;;;;;;5052775;28;20025;-71
2023/12/31 10:47:04;;;;;;;16.40;8.40;;;;;;;;;;5052190;28;20036;-73
2023/12/31 10:49:32;;;;;;;16.03;8.10;;;;;;;;;;5052757;28;20113;-70
2023/12/31 10:52:00;;;;;;;16.60;10.13;;;;;;;;;;5070587;28;20029;-68
2023/12/31 10:54:38;;;;;;;16.20;8.30;;;;;;;;;;5061970;28;20048;-69
2023/12/31 10:57:06;;;;;;;22.13;8.47;;;;;;;;;;5052938;28;20536;-69
2023/12/31 10:59:36;;;;;;;13.77;6.97;;;;;;;;;;5050939;28;20029;-69
2023/12/31 11:02:06;;;;;;;16.23;8.10;;;;;;;;;;5051122;28;20507;-70
2023/12/31 11:04:33;;;;;;;13.57;9.13;;;;;;;;;;5034803;28;20025;-70
2023/12/31 11:07:03;;;;;;;14.73;8.10;;;;;;;;;;5050868;28;20036;-71
2023/12/31 11:09:34;;;;;;;11.27;6.13;;;;;;;;;;5050453;28;20056;-73
2023/12/31 11:12:05;;;;;;;14.27;7.53;;;;;;;;;;5051050;28;20049;-75
2023/12/31 11:14:32;;;;;;;11.00;5.87;;;;;;;;;;5050693;28;20408;-73
2023/12/31 11:17:30;;;;;;;11.23;5.20;;;;;;;;;;5050733;28;20029;-74
2023/12/31 11:20:26;;;;;;;13.27;6.23;;;;;;;;;;5050387;28;20068;-74
2023/12/31 11:22:54;;;;;;;10.97;5.80;;;;;;;;;;5065423;28;20059;-74
2023/12/31 11:25:21;;;;;;;13.57;7.00;;;;;;;;;;5070368;28;20378;-73
2023/12/31 11:27:53;;;;;;;13.73;7.10;;;;;;;;;;5070222;28;20384;-73
2023/12/31 11:30:54;;;;;;;15.15;7.13;;;;;;;;;;5070557;28;20024;-72
2023/12/31 11:33:21;;;;;;;11.30;7.07;;;;;;;;;;5069894;28;20127;-72
2023/12/31 11:35:52;;;;;;;14.07;8.00;;;;;;;;;;5070963;28;20025;-74
2023/12/31 11:38:19;;;;;;;16.23;8.30;;;;;;;;;;5069663;28;20048;-72
2023/12/31 11:40:45;;;;;;;15.17;7.33;;;;;;;;;;5069732;28;20484;-74
2023/12/31 11:43:19;;;;;;;17.47;7.33;;;;;;;;;;5069566;28;20020;-76
2023/12/31 11:45:48;;;;;;;19.60;10.57;;;;;;;;;;5067004;28;20182;-72
2023/12/31 11:48:24;;;;;;;10.67;7.17;;;;;;;;;;5052925;28;20024;-74
2023/12/31 11:50:53;;;;;;;17.63;8.80;;;;;;;;;;5070707;28;20028;-75
2023/12/31 11:53:25;;;;;;;16.60;8.00;;;;;;;;;;5063936;28;20497;-76
2023/12/31 11:55:56;;;;;;;18.40;7.57;;;;;;;;;;5055158;28;20089;-72
2023/12/31 11:58:21;;;;;;;12.47;7.67;;;;;;;;;;5060712;28;20047;-73
2023/12/31 12:00:50;;;;;;;13.98;6.45;;;;;;;;;;5049008;28;20492;-73
2023/12/31 12:03:17;;;;;;;13.18;5.70;;;;;;;;;;5032751;28;20044;-72
2023/12/31 12:05:45;;;;;;;11.57;6.53;;;;;;;;;;5050445;28;20032;-74
2023/12/31 12:08:11;;;;;;;15.27;6.53;;;;;;;;;;5049533;28;20212;-76
2023/12/31 12:10:37;;;;;;;12.23;6.43;;;;;;;;;;5068003;28;20443;-73
2023/12/31 12:13:03;;;;;;;11.10;6.20;;;;;;;;;;5070114;28;20090;-74
2023/12/31 12:15:39;;;;;;;15.50;7.10;;;;;;;;;;5068972;28;20107;-74
2023/12/31 12:18:14;;;;;;;12.43;7.22;;;;;;;;;;5057569;28;20556;-75
2023/12/31 12:20:41;;;;;;;11.55;7.70;;;;;;;;;;5048844;28;20035;-72
2023/12/31 12:23:08;;;;;;;13.85;7.53;;;;;;;;;;5050759;28;20021;-75
2023/12/31 12:25:36;;;;;;;13.35;6.97;;;;;;;;;;5050799;28;20031;-75
2023/12/31 12:28:05;;;;;;;16.48;9.20;;;;;;;;;;5033610;28;20742;-74
2023/12/31 12:30:31;;;;;;;16.45;8.38;;;;;;;;;;5049932;28;20524;-76
2023/12/31 12:33:00;;;;;;;14.67;8.63;;;;;;;;;;5049124;28;20132;-72
2023/12/31 12:35:29;;;;;;;14.88;7.75;;;;;;;;;;5048737;28;20021;-73
2023/12/31 12:37:54;;;;;;;16.53;8.40;;;;;;;;;;5048381;28;20025;-76
2023/12/31 12:40:22;;;;;;;15.43;7.65;;;;;;;;;;5056374;28;20042;-75
2023/12/31 12:42:48;;;;;;;15.07;7.90;;;;;;;;;;5070354;28;20384;-73
2023/12/31 12:45:16;;;;;;;17.30;8.30;;;;;;;;;;5070516;28;20093;-75
2023/12/31 12:47:45;;;;;;;18.60;9.57;;;;;;;;;;5055202;28;20028;-77
2023/12/31 12:50:10;;;;;;;18.33;9.40;;;;;;;;;;5077528;28;20072;-73
2023/12/31 12:52:37;;;;;;;15.07;8.30;;;;;;;;;;5077345;28;20029;-74
2023/12/31 12:55:02;;;;;;;16.23;7.90;;;;;;;;;;5070795;28;20028;-73
2023/12/31 12:57:28;;;;;;;18.42;8.50;;;;;;;;;;5068198;28;20132;-72
2023/12/31 12:59:54;;;;;;;17.90;8.67;;;;;;;;;;5067554;28;20020;-73
2023/12/31 13:02:20;;;;;;;18.83;9.03;;;;;;;;;;5068232;28;20024;-75
2023/12/31 13:04:47;;;;;;;14.07;8.55;;;;;;;;;;5069360;28;20082;-75
2023/12/31 13:07:14;;;;;;;16.30;9.90;;;;;;;;;;5068627;28;20434;-73
2023/12/31 13:09:40;;;;;;;16.10;9.00;;;;;;;;;;5068460;28;20035;-74
2023/12/31 13:12:06;;;;;;;15.20;8.70;;;;;;;;;;5067660;28;20045;-74
2023/12/31 13:14:34;;;;;;;16.00;8.53;;;;;;;;;;5068017;28;20035;-73
2023/12/31 13:17:02;;;;;;;16.43;8.90;;;;;;;;;;5067946;28;20031;-72
2023/12/31 13:19:28;;;;;;;16.90;7.97;;;;;;;;;;5069365;28;20024;-75
2023/12/31 13:21:53;;;;;;;12.27;8.20;;;;;;;;;;5067791;28;20036;-72
2023/12/31 13:24:20;;;;;;;17.30;9.27;;;;;;;;;;5067728;28;20035;-73
2023/12/31 13:26:47;;;;;;;14.47;8.70;;;;;;;;;;5067748;28;20024;-75
2023/12/31 13:29:14;;;;;;;18.67;9.50;;;;;;;;;;5068215;28;20395;-75
2023/12/31 13:31:40;;;;;;;16.10;9.17;;;;;;;;;;5069896;28;20032;-76
2023/12/31 13:34:07;;;;;;;18.83;10.17;;;;;;;;;;5072873;28;20039;-73
2023/12/31 13:36:33;;;;;;;17.13;9.77;;;;;;;;;;5074424;28;20021;-77
2023/12/31 13:39:00;;;;;;;21.17;9.67;;;;;;;;;;5051636;28;20468;-73
2023/12/31 13:41:27;;;;;;;17.07;9.13;;;;;;;;;;5068093;28;20039;-72
2023/12/31 13:43:54;;;;;;;24.10;10.47;;;;;;;;;;5063793;28;20092;-75
2023/12/31 13:46:20;;;;;;;19.57;10.20;;;;;;;;;;5051670;28;20036;-75
2023/12/31 13:48:46;;;;;;;20.80;10.53;;;;;;;;;;5057755;28;20028;-76
2023/12/31 13:51:12;;;;;;;25.93;10.40;;;;;;;;;;5053941;28;20033;-73
2023/12/31 13:53:38;;;;;;;22.57;11.10;;;;;;;;;;5052149;28;20049;-73
2023/12/31 13:56:06;;;;;;;22.77;12.23;;;;;;;;;;5052128;28;20029;-73
2023/12/31 13:58:34;;;;;;;18.47;9.80;;;;;;;;;;5052065;28;20375;-75
2023/12/31 14:01:00;;;;;;;29.13;15.03;;;;;;;;;;5070742;28;21025;-73
2023/12/31 14:03:26;;;;;;;24.30;12.63;;;;;;;;;;5055181;28;20039;-73
2023/12/31 14:05:52;;;;;;;21.23;10.30;;;;;;;;;;5071326;28;20495;-74
2023/12/31 14:08:18;;;;;;;19.60;9.80;;;;;;;;;;5073130;28;20033;-74
2023/12/31 14:10:44;;;;;;;21.33;11.07;;;;;;;;;;5072280;28;20127;-75
2023/12/31 14:13:09;;;;;;;17.87;9.47;;;;;;;;;;5071533;28;20060;-74
2023/12/31 14:15:35;;;;;;;18.73;9.90;;;;;;;;;;5071076;28;20416;-73
2023/12/31 14:18:04;;;;;;;20.77;10.53;;;;;;;;;;5071608;28;20097;-73
2023/12/31 14:20:30;;;;;;;19.03;10.23;;;;;;;;;;5071983;28;20028;-73
2023/12/31 14:22:57;;;;;;;22.47;10.73;;;;;;;;;;5071779;28;20039;-76
2023/12/31 14:25:41;;;;;;;15.97;9.70;;;;;;;;;;5073756;28;20040;-72
2023/12/31 14:28:07;;;;;;;18.77;10.60;;;;;;;;;;5073405;28;20040;-75